Time;durP1;ratioP1;P1;durP2;ratioP2;P2;SDS_P1;SDS_P2;PMS_P1;PMS_P2;Temp;Humidity;BMP_temperature;BMP_pressure;BME280_temperature;BME280_humidity;BME280_pressure;Samples;Min_cycle;Max_cycle;Signal;HPM_P1;HPM_P2
2023/06/14 00:02:11;;;;;;;6.20;4.30;;;;;;;16.74;49.87;97570.81;5054246;28;20216;-72
2023/06/14 00:04:39;;;;;;;4.40;3.83;;;;;;;16.67;50.95;97572.16;5054124;28;20572;-72
2023/06/14 00:07:08;;;;;;;5.37;3.70;;;;;;;16.44;51.98;97578.06;5054269;28;20260;-72
2023/06/14 00:09:34;;;;;;;4.47;3.77;;;;;;;16.36;52.36;97589.28;5054402;28;20300;-72
2023/06/14 00:12:00;;;;;;;5.07;3.80;;;;;;;16.44;50.88;97584.25;5054306;28;20211;-72
2023/06/14 00:14:27;;;;;;;5.37;3.97;;;;;;;16.28;52.45;97589.84;5055088;28;20205;-72
2023/06/14 00:16:58;;;;;;;4.77;3.47;;;;;;;16.14;52.21;97586.84;5054163;28;20229;-72
2023/06/14 00:19:25;;;;;;;4.10;3.47;;;;;;;16.10;52.94;97585.75;5054240;28;20206;-72
2023/06/14 00:21:51;;;;;;;4.97;3.83;;;;;;;16.16;51.42;97591.94;5053804;28;20673;-72
2023/06/14 00:24:18;;;;;;;4.17;3.77;;;;;;;16.13;51.04;97592.47;5053276;28;20271;-72
2023/06/14 00:26:44;;;;;;;5.50;3.67;;;;;;;16.02;51.19;97591.63;5053679;28;20225;-72
2023/06/14 00:29:11;;;;;;;4.37;3.80;;;;;;;15.93;51.79;97595.91;5054014;28;20201;-72
2023/06/14 00:31:37;;;;;;;4.50;3.57;;;;;;;16.01;51.80;97584.66;5054170;28;20222;-72
2023/06/14 00:34:03;;;;;;;5.57;3.47;;;;;;;16.12;51.72;97591.69;5053915;28;20209;-72
2023/06/14 00:36:30;;;;;;;5.30;3.13;;;;;;;16.09;51.66;97586.84;5053835;28;20233;-72
2023/06/14 00:38:56;;;;;;;5.17;3.67;;;;;;;16.16;50.32;97583.91;5053783;28;20209;-72
2023/06/14 00:41:22;;;;;;;4.60;3.90;;;;;;;16.18;51.28;97582.56;5053833;28;20209;-72
2023/06/14 00:43:49;;;;;;;7.27;3.97;;;;;;;16.25;49.83;97580.44;5053780;28;20209;-72
2023/06/14 00:46:15;;;;;;;5.27;3.67;;;;;;;16.33;50.78;97579.09;5053704;28;20591;-72
2023/06/14 00:48:42;;;;;;;4.40;3.63;;;;;;;16.40;48.36;97572.44;5053696;28;20221;-72
2023/06/14 00:51:09;;;;;;;5.63;3.83;;;;;;;16.48;49.43;97574.59;5053712;28;20201;-72
2023/06/14 00:53:35;;;;;;;4.50;3.97;;;;;;;16.00;51.31;97574.19;5053695;28;20212;-72
2023/06/14 00:56:02;;;;;;;5.57;3.90;;;;;;;16.03;51.27;97574.50;5053243;28;20229;-72
2023/06/14 00:58:29;;;;;;;6.00;3.60;;;;;;;16.17;51.56;97577.47;5053658;28;20568;-72
2023/06/14 01:00:56;;;;;;;4.33;3.93;;;;;;;15.98;52.70;97579.84;5053515;28;20208;-72
2023/06/14 01:03:22;;;;;;;5.30;3.97;;;;;;;15.94;54.41;97583.31;5053518;28;20279;-72
2023/06/14 01:05:55;;;;;;;4.10;3.70;;;;;;;15.87;54.28;97586.22;5053460;28;20225;-72
2023/06/14 01:08:34;;;;;;;4.00;3.70;;;;;;;15.66;54.53;97584.56;5053461;28;20248;-72
2023/06/14 01:11:08;;;;;;;4.83;4.13;;;;;;;15.68;54.26;97586.97;5053153;28;20641;-72
2023/06/14 01:13:38;;;;;;;5.67;3.50;;;;;;;15.62;53.94;97583.47;5053512;28;20190;-72
2023/06/14 01:16:07;;;;;;;4.07;3.40;;;;;;;15.40;55.43;97582.84;5053443;28;20229;-72
2023/06/14 01:18:34;;;;;;;5.17;3.63;;;;;;;15.23;56.62;97590.22;5053344;28;20201;-72
2023/06/14 01:21:05;;;;;;;5.17;3.53;;;;;;;15.27;56.55;97590.50;5053318;28;20211;-72
2023/06/14 01:23:32;;;;;;;4.23;3.63;;;;;;;15.14;58.02;97594.44;5053158;28;20217;-72
2023/06/14 01:26:02;;;;;;;6.70;3.80;;;;;;;15.16;55.21;97591.50;5053270;28;20307;-72
2023/06/14 01:28:31;;;;;;;3.70;3.40;;;;;;;15.16;57.77;97591.50;5053229;28;20225;-72
2023/06/14 01:31:03;;;;;;;4.93;3.10;;;;;;;15.15;55.97;97589.91;5052159;28;20213;-72
2023/06/14 01:33:31;;;;;;;4.70;3.87;;;;;;;15.17;56.63;97593.13;5052926;28;20197;-72
2023/06/14 01:35:59;;;;;;;4.30;3.87;;;;;;;15.42;52.53;97591.41;5055908;28;20251;-72
2023/06/14 01:38:27;;;;;;;3.83;3.40;;;;;;;15.38;56.89;97592.22;5056895;28;20572;-72
2023/06/14 01:40:56;;;;;;;6.87;3.97;;;;;;;15.47;52.59;97590.66;5056865;28;20692;-72
2023/06/14 01:43:24;;;;;;;5.07;3.70;;;;;;;15.61;53.11;97597.91;5039653;28;20212;-72
2023/06/14 01:45:53;;;;;;;7.43;3.57;;;;;;;15.47;53.98;97593.31;5057015;28;20261;-72
2023/06/14 01:48:20;;;;;;;4.73;3.87;;;;;;;15.42;52.53;97586.06;5056953;28;20229;-72
2023/06/14 01:50:49;;;;;;;4.73;3.57;;;;;;;15.41;52.44;97586.31;5056966;28;20205;-72
2023/06/14 01:53:16;;;;;;;4.77;3.70;;;;;;;15.39;52.54;97583.91;5056959;28;20254;-72
2023/06/14 01:55:44;;;;;;;6.40;3.70;;;;;;;15.38;51.70;97594.88;5056847;28;20229;-72
2023/06/14 01:58:11;;;;;;;5.10;3.57;;;;;;;15.37;51.65;97588.72;5055659;28;20228;-72
2023/06/14 02:00:37;;;;;;;6.07;4.07;;;;;;;15.43;51.71;97587.66;5056831;28;20210;-72
2023/06/14 02:03:04;;;;;;;7.00;3.53;;;;;;;15.39;52.15;97585.78;5056783;28;20205;-72
2023/06/14 02:05:31;;;;;;;4.97;3.90;;;;;;;15.41;54.08;97588.97;5056350;28;20255;-72
2023/06/14 02:07:57;;;;;;;4.27;3.87;;;;;;;15.19;55.00;97591.78;5056638;28;20225;-72
2023/06/14 02:10:24;;;;;;;4.10;3.70;;;;;;;15.10;54.70;97597.91;5056303;28;20213;-72
2023/06/14 02:12:50;;;;;;;6.80;3.70;;;;;;;15.21;53.55;97592.34;5056597;28;20209;-72
2023/06/14 02:15:19;;;;;;;4.17;3.87;;;;;;;15.12;55.75;97588.56;5056496;28;20205;-72
2023/06/14 02:17:46;;;;;;;6.47;3.50;;;;;;;14.85;55.61;97598.53;5056163;28;20638;-72
2023/06/14 02:20:14;;;;;;;5.00;3.43;;;;;;;14.88;57.19;97598.00;5056450;28;20205;-72
2023/06/14 02:22:40;;;;;;;5.07;3.60;;;;;;;14.93;57.38;97603.41;5056241;28;20213;-72
2023/06/14 02:25:07;;;;;;;4.80;3.70;;;;;;;14.75;57.54;97598.44;5056413;28;20189;-72
2023/06/14 02:27:34;;;;;;;5.13;4.07;;;;;;;14.73;57.33;97603.25;5056153;28;20221;-72
2023/06/14 02:30:01;;;;;;;4.30;3.90;;;;;;;14.73;57.37;97595.22;5056206;28;20202;-72
2023/06/14 02:32:27;;;;;;;5.20;3.90;;;;;;;14.87;55.08;97591.06;5056221;28;20260;-72
2023/06/14 02:34:54;;;;;;;5.70;3.93;;;;;;;14.94;54.09;97593.50;5056210;28;20213;-72
2023/06/14 02:37:21;;;;;;;6.43;3.67;;;;;;;14.93;54.80;97600.72;5056033;28;20232;-72
2023/06/14 02:39:48;;;;;;;4.83;3.70;;;;;;;14.96;53.64;97597.53;5056103;28;20214;-72
2023/06/14 02:42:14;;;;;;;4.97;3.70;;;;;;;14.99;52.94;97597.03;5056078;28;20201;-72
2023/06/14 02:44:40;;;;;;;5.67;3.60;;;;;;;14.98;53.23;97590.06;5055916;28;20292;-72
2023/06/14 02:47:07;;;;;;;6.87;3.97;;;;;;;15.06;53.24;97583.44;5055739;28;20221;-72
2023/06/14 02:49:33;;;;;;;5.03;4.10;;;;;;;14.95;53.66;97592.44;5055547;28;20723;-72
2023/06/14 02:51:59;;;;;;;4.53;3.80;;;;;;;14.97;53.65;97588.44;5055552;28;20568;-71
2023/06/14 02:54:26;;;;;;;5.67;3.50;;;;;;;15.07;54.43;97593.84;5055489;28;20693;-71
2023/06/14 02:56:52;;;;;;;4.47;3.93;;;;;;;15.07;53.35;97583.13;5055714;28;20236;-71
2023/06/14 02:59:19;;;;;;;4.50;3.70;;;;;;;15.05;55.23;97593.31;5055699;28;20205;-72
2023/06/14 03:01:46;;;;;;;5.30;3.80;;;;;;;14.97;54.15;97601.81;5055617;28;20213;-72
2023/06/14 03:04:12;;;;;;;5.83;3.87;;;;;;;14.97;54.33;97596.47;5055447;28;20236;-72
2023/06/14 03:06:39;;;;;;;5.10;4.10;;;;;;;14.91;55.02;97599.38;5055455;28;20330;-72
2023/06/14 03:09:06;;;;;;;5.07;3.70;;;;;;;14.76;54.79;97597.41;5055893;28;20229;-72
2023/06/14 03:11:33;;;;;;;5.63;3.80;;;;;;;14.74;54.92;97598.72;5054957;28;20213;-72
2023/06/14 03:13:59;;;;;;;5.50;3.90;;;;;;;14.73;54.69;97608.59;5056352;28;20213;-72
2023/06/14 03:16:28;;;;;;;8.57;3.83;;;;;;;14.70;55.20;97609.09;5055239;28;20229;-72
2023/06/14 03:18:55;;;;;;;7.60;3.60;;;;;;;14.76;56.58;97608.09;5055285;28;20212;-72
2023/06/14 03:21:21;;;;;;;4.40;3.83;;;;;;;14.67;55.64;97604.28;5055257;28;20215;-72
2023/06/14 03:23:48;;;;;;;5.00;3.73;;;;;;;14.69;56.79;97612.84;5054974;28;20614;-72
2023/06/14 03:26:17;;;;;;;4.87;3.67;;;;;;;14.74;56.13;97615.56;5054802;28;20229;-72
2023/06/14 03:28:45;;;;;;;4.77;3.53;;;;;;;14.78;56.56;97619.34;5055048;28;20256;-72
2023/06/14 03:31:12;;;;;;;6.27;3.53;;;;;;;14.75;56.67;97617.16;5055165;28;20599;-72
2023/06/14 03:33:38;;;;;;;4.33;3.80;;;;;;;14.73;56.86;97623.84;5054951;28;20213;-72
2023/06/14 03:36:06;;;;;;;6.03;3.93;;;;;;;14.67;56.32;97628.38;5054444;28;20705;-72
2023/06/14 03:38:32;;;;;;;4.40;3.97;;;;;;;14.64;56.42;97628.88;5054882;28;20251;-72
2023/06/14 03:40:58;;;;;;;4.20;3.80;;;;;;;14.62;57.29;97633.69;5054614;28;20673;-72
2023/06/14 03:43:25;;;;;;;4.83;3.70;;;;;;;14.66;58.62;97631.28;5054484;28;20205;-72
2023/06/14 03:45:52;;;;;;;6.17;3.37;;;;;;;14.35;57.70;97632.06;5054529;28;20225;-72
2023/06/14 03:48:18;;;;;;;4.90;3.80;;;;;;;14.53;56.96;97632.53;5054492;28;20578;-72
2023/06/14 03:50:45;;;;;;;4.17;3.77;;;;;;;14.51;59.04;97639.97;5054477;28;20282;-72
2023/06/14 03:53:11;;;;;;;4.37;3.97;;;;;;;14.56;58.56;97641.91;5054501;28;20263;-72
2023/06/14 03:55:39;;;;;;;4.47;4.00;;;;;;;14.59;57.65;97649.41;5054351;28;20226;-72
2023/06/14 03:58:06;;;;;;;4.53;4.10;;;;;;;14.58;58.75;97643.28;5053927;28;20209;-72
2023/06/14 04:00:33;;;;;;;3.83;3.50;;;;;;;14.57;57.63;97646.97;5054289;28;20312;-72
2023/06/14 04:02:59;;;;;;;4.90;4.07;;;;;;;14.59;59.28;97652.91;5054025;28;20213;-72
2023/06/14 04:05:26;;;;;;;4.30;3.77;;;;;;;14.61;61.73;97647.31;5053971;28;20572;-72
2023/06/14 04:07:55;;;;;;;4.43;3.97;;;;;;;14.43;58.14;97645.78;5053752;28;20245;-72
2023/06/14 04:10:21;;;;;;;5.70;3.63;;;;;;;14.65;58.11;97659.91;5053963;28;20300;-72
2023/06/14 04:12:48;;;;;;;5.27;3.77;;;;;;;14.51;60.30;97656.03;5054092;28;20205;-72
2023/06/14 04:15:14;;;;;;;5.43;3.70;;;;;;;14.63;57.86;97651.34;5054094;28;20209;-72
2023/06/14 04:17:41;;;;;;;5.57;4.00;;;;;;;14.68;58.03;97659.41;5053767;28;20300;-72
2023/06/14 04:20:09;;;;;;;5.47;4.23;;;;;;;14.64;58.01;97660.16;5053947;28;20205;-72
2023/06/14 04:22:36;;;;;;;5.00;3.87;;;;;;;14.59;58.35;97663.59;5053865;28;20231;-72
2023/06/14 04:25:03;;;;;;;7.03;4.30;;;;;;;14.51;58.66;97664.06;5053827;28;20194;-72
2023/06/14 04:27:31;;;;;;;8.50;4.10;;;;;;;14.48;58.71;97664.53;5053383;28;20586;-72
2023/06/14 04:29:59;;;;;;;6.17;4.23;;;;;;;14.57;58.21;97672.94;5053405;28;20259;-72
2023/06/14 04:32:26;;;;;;;4.50;3.73;;;;;;;14.64;59.93;97663.66;5053830;28;20237;-72
2023/06/14 04:35:01;;;;;;;4.77;4.10;;;;;;;14.79;59.42;97677.16;5053321;28;20205;-72
2023/06/14 04:37:29;;;;;;;6.20;4.17;;;;;;;14.87;58.59;97667.84;5053525;28;20225;-72
2023/06/14 04:39:56;;;;;;;4.37;3.97;;;;;;;14.90;58.98;97673.53;5052954;28;20738;-72
2023/06/14 04:42:25;;;;;;;7.63;4.40;;;;;;;14.95;58.27;97660.16;5052850;28;20729;-72
2023/06/14 04:44:55;;;;;;;4.97;4.37;;;;;;;15.03;57.74;97664.25;5052975;28;20209;-72
2023/06/14 04:47:22;;;;;;;5.63;4.07;;;;;;;15.21;57.04;97680.72;5053355;28;20221;-72
2023/06/14 04:49:50;;;;;;;6.83;4.20;;;;;;;15.12;57.58;97682.25;5053364;28;20217;-72
2023/06/14 04:52:17;;;;;;;4.93;3.70;;;;;;;15.19;58.08;97690.06;5053262;28;20212;-72
2023/06/14 04:54:43;;;;;;;7.17;4.27;;;;;;;15.27;57.69;97684.22;5053437;28;20300;-72
2023/06/14 04:57:14;;;;;;;4.50;4.10;;;;;;;15.15;57.78;97689.75;5053125;28;20231;-72
2023/06/14 04:59:41;;;;;;;4.33;3.90;;;;;;;15.24;58.81;97698.16;5053194;28;20186;-72
2023/06/14 05:02:08;;;;;;;6.83;4.37;;;;;;;15.16;58.08;97702.09;5052864;28;20205;-72
2023/06/14 05:04:39;;;;;;;7.23;5.37;;;;;;;15.36;58.44;97694.25;5053070;28;20720;-72
2023/06/14 05:07:06;;;;;;;5.83;4.13;;;;;;;15.70;57.31;97700.88;5052803;28;20225;-72
2023/06/14 05:09:33;;;;;;;5.53;4.67;;;;;;;15.98;56.60;97702.38;5052091;28;20247;-72
2023/06/14 05:12:00;;;;;;;7.90;4.90;;;;;;;16.37;56.23;97707.06;5052922;28;20668;-72
2023/06/14 05:14:26;;;;;;;5.70;4.27;;;;;;;16.63;54.29;97702.59;5052946;28;20296;-72
2023/06/14 05:16:53;;;;;;;7.87;4.63;;;;;;;16.98;53.87;97700.78;5052450;28;20233;-72
2023/06/14 05:19:20;;;;;;;6.07;4.73;;;;;;;17.38;51.25;97691.91;5053177;28;20205;-72
2023/06/14 05:21:47;;;;;;;5.77;4.33;;;;;;;18.27;49.98;97707.00;5052777;28;20205;-72
2023/06/14 05:24:14;;;;;;;7.47;4.30;;;;;;;18.51;48.10;97697.19;5052613;28;20217;-72
2023/06/14 05:26:41;;;;;;;7.40;5.00;;;;;;;17.79;49.78;97694.28;5052921;28;20221;-72
2023/06/14 05:29:07;;;;;;;7.17;5.10;;;;;;;18.14;49.48;97702.19;5052704;28;20231;-72
2023/06/14 05:31:33;;;;;;;7.80;5.00;;;;;;;17.68;50.13;97708.81;5052794;28;20209;-72
2023/06/14 05:34:00;;;;;;;9.63;4.50;;;;;;;17.11;51.67;97702.13;5052869;28;20213;-73
2023/06/14 05:36:27;;;;;;;7.63;4.90;;;;;;;17.00;53.31;97708.53;5053130;28;20226;-72
2023/06/14 05:38:57;;;;;;;6.43;4.50;;;;;;;17.21;52.97;97710.16;5052735;28;20204;-72
2023/06/14 05:41:26;;;;;;;9.43;5.30;;;;;;;16.70;54.08;97706.63;5052489;28;20245;-72
2023/06/14 05:43:55;;;;;;;6.70;4.80;;;;;;;16.75;54.00;97709.34;5052639;28;20205;-73
2023/06/14 05:46:24;;;;;;;11.83;5.10;;;;;;;16.90;54.59;97712.03;5052767;28;20394;-72
2023/06/14 05:48:51;;;;;;;8.67;5.17;;;;;;;17.06;54.41;97710.97;5052458;28;20696;-72
2023/06/14 05:51:18;;;;;;;9.23;5.13;;;;;;;17.31;53.23;97702.09;5052794;28;20211;-72
2023/06/14 05:53:45;;;;;;;9.47;4.93;;;;;;;17.41;52.86;97702.94;5052041;28;20255;-72
2023/06/14 05:56:12;;;;;;;8.50;5.07;;;;;;;17.60;51.92;97705.88;5052637;28;20291;-72
2023/06/14 05:58:38;;;;;;;6.07;4.63;;;;;;;17.84;51.01;97707.72;5052720;28;20201;-72
2023/06/14 06:01:05;;;;;;;9.37;4.50;;;;;;;17.24;51.94;97710.44;5052771;28;20201;-72
2023/06/14 06:03:32;;;;;;;7.73;5.23;;;;;;;17.52;52.74;97717.16;5052280;28;20288;-72
2023/06/14 06:05:58;;;;;;;11.93;5.10;;;;;;;17.66;53.66;97707.47;5053243;28;20580;-72
2023/06/14 06:08:25;;;;;;;6.97;5.10;;;;;;;17.78;52.77;97708.00;5052371;28;20212;-72
2023/06/14 06:10:51;;;;;;;6.00;4.73;;;;;;;17.88;52.71;97711.47;5052771;28;20209;-73
2023/06/14 06:13:17;;;;;;;6.27;4.17;;;;;;;18.03;49.71;97713.28;5052052;28;20209;-72
2023/06/14 06:15:44;;;;;;;8.33;4.83;;;;;;;18.18;51.09;97716.72;5052072;28;20280;-72
2023/06/14 06:18:11;;;;;;;6.80;4.80;;;;;;;18.35;50.04;97722.59;5051840;28;20295;-73
2023/06/14 06:20:37;;;;;;;5.17;4.03;;;;;;;18.19;50.02;97717.53;5052759;28;20204;-72
2023/06/14 06:23:03;;;;;;;4.50;4.10;;;;;;;18.31;51.14;97724.19;5055967;28;20217;-72
2023/06/14 06:25:31;;;;;;;9.63;4.43;;;;;;;18.56;49.41;97721.44;5056059;28;20190;-72
2023/06/14 06:27:59;;;;;;;5.53;4.17;;;;;;;18.55;49.07;97730.56;5055788;28;20205;-72
2023/06/14 06:30:26;;;;;;;7.40;4.43;;;;;;;18.60;48.33;97727.84;5055459;28;20331;-72
2023/06/14 06:32:52;;;;;;;6.27;4.07;;;;;;;18.59;49.07;97730.84;5055712;28;20613;-72
2023/06/14 06:35:19;;;;;;;5.13;4.23;;;;;;;18.33;50.26;97727.44;5055532;28;20209;-72
2023/06/14 06:37:45;;;;;;;6.87;4.40;;;;;;;18.56;50.08;97728.69;5055347;28;20676;-73
2023/06/14 06:40:12;;;;;;;4.43;4.03;;;;;;;18.45;50.18;97727.94;5055457;28;20212;-72
2023/06/14 06:42:38;;;;;;;6.13;4.47;;;;;;;18.55;50.79;97735.94;5055579;28;20263;-72
2023/06/14 06:45:06;;;;;;;6.23;4.60;;;;;;;18.71;50.82;97734.00;5055524;28;20215;-72
2023/06/14 06:47:32;;;;;;;4.50;4.10;;;;;;;18.67;49.61;97722.97;5055325;28;20649;-73
2023/06/14 06:49:58;;;;;;;4.80;4.20;;;;;;;18.77;47.68;97728.28;5055642;28;20221;-72
2023/06/14 06:52:25;;;;;;;4.43;3.73;;;;;;;18.80;48.41;97743.09;5055448;28;20205;-72
2023/06/14 06:54:54;;;;;;;7.03;3.97;;;;;;;19.04;47.93;97741.31;5055430;28;20209;-72
2023/06/14 06:57:22;;;;;;;7.10;4.03;;;;;;;19.33;45.29;97748.41;5055180;28;20307;-72
2023/06/14 06:59:49;;;;;;;5.07;4.27;;;;;;;19.06;46.59;97750.75;5055084;28;20232;-72
2023/06/14 07:02:15;;;;;;;3.80;3.50;;;;;;;18.87;47.27;97754.38;5054933;28;20201;-72
2023/06/14 07:04:41;;;;;;;5.77;4.07;;;;;;;18.64;47.38;97761.22;5055132;28;20209;-72
2023/06/14 07:07:09;;;;;;;5.63;3.90;;;;;;;18.83;47.22;97764.88;5055101;28;20240;-72
2023/06/14 07:09:35;;;;;;;5.53;4.23;;;;;;;18.75;48.45;97761.97;5054983;28;20232;-72
2023/06/14 07:12:02;;;;;;;5.37;4.23;;;;;;;19.15;49.07;97762.53;5054897;28;20687;-72
2023/06/14 07:14:30;;;;;;;5.73;4.40;;;;;;;19.31;47.28;97760.53;5055059;28;20577;-72
2023/06/14 07:16:56;;;;;;;5.73;4.20;;;;;;;19.34;47.55;97765.38;5055015;28;20229;-72
2023/06/14 07:19:22;;;;;;;4.37;3.97;;;;;;;19.40;47.35;97767.75;5054513;28;20213;-73
2023/06/14 07:21:49;;;;;;;8.30;4.43;;;;;;;19.45;47.75;97769.63;5054823;28;20212;-73
2023/06/14 07:24:15;;;;;;;5.70;3.97;;;;;;;19.34;46.27;97770.78;5054354;28;20240;-73
2023/06/14 07:26:42;;;;;;;6.30;3.70;;;;;;;19.52;44.87;97772.78;5054878;28;20232;-72
2023/06/14 07:29:08;;;;;;;5.10;4.10;;;;;;;19.54;45.22;97776.81;5054791;28;20225;-72
2023/06/14 07:31:34;;;;;;;6.23;4.13;;;;;;;19.73;44.94;97778.81;5054861;28;20206;-72
2023/06/14 07:34:01;;;;;;;4.50;4.07;;;;;;;19.78;46.51;97783.06;5053289;28;20216;-72
2023/06/14 07:36:27;;;;;;;6.00;4.10;;;;;;;19.85;44.78;97788.13;5054182;28;20225;-72
2023/06/14 07:38:53;;;;;;;4.87;3.70;;;;;;;19.40;46.41;97788.50;5054555;28;20209;-72
2023/06/14 07:41:20;;;;;;;5.10;3.80;;;;;;;19.58;47.21;97787.03;5054754;28;20497;-72
2023/06/14 07:43:46;;;;;;;4.57;4.17;;;;;;;19.80;45.62;97790.09;5054603;28;20539;-73
2023/06/14 07:46:13;;;;;;;7.00;4.00;;;;;;;19.86;45.64;97791.63;5054308;28;20252;-72
2023/06/14 07:48:39;;;;;;;7.03;4.03;;;;;;;20.09;45.54;97788.19;5054354;28;20221;-72
2023/06/14 07:51:06;;;;;;;7.33;4.23;;;;;;;20.44;44.18;97785.09;5054323;28;20225;-72
2023/06/14 07:53:32;;;;;;;5.27;4.00;;;;;;;20.11;45.38;97791.44;5053772;28;20673;-72
2023/06/14 07:55:58;;;;;;;7.73;3.83;;;;;;;19.95;46.28;97798.03;5053785;28;20614;-72
2023/06/14 07:58:25;;;;;;;7.87;4.47;;;;;;;20.06;47.25;97789.53;5054288;28;20201;-72
2023/06/14 08:00:51;;;;;;;6.47;4.20;;;;;;;20.12;47.27;97795.72;5054339;28;20208;-72
2023/06/14 08:03:18;;;;;;;7.30;4.10;;;;;;;20.10;46.58;97779.81;5054476;28;20209;-72
2023/06/14 08:05:44;;;;;;;5.00;4.50;;;;;;;19.96;48.24;97788.84;5054506;28;20228;-72
2023/06/14 08:08:10;;;;;;;5.03;4.27;;;;;;;20.08;48.21;97784.69;5054409;28;20624;-72
2023/06/14 08:10:37;;;;;;;5.57;4.63;;;;;;;20.15;47.39;97781.66;5053557;28;20700;-72
2023/06/14 08:13:03;;;;;;;9.27;4.10;;;;;;;20.00;47.21;97796.09;5054183;28;20205;-72
2023/06/14 08:15:29;;;;;;;8.43;4.07;;;;;;;19.81;47.85;97791.69;5053899;28;20296;-72
2023/06/14 08:17:56;;;;;;;8.87;4.50;;;;;;;20.26;47.69;97785.84;5054048;28;20205;-72
2023/06/14 08:20:22;;;;;;;4.50;4.10;;;;;;;20.49;48.56;97783.16;5054057;28;20227;-72
2023/06/14 08:22:49;;;;;;;7.43;4.20;;;;;;;20.23;48.69;97781.84;5053757;28;20216;-72
2023/06/14 08:25:15;;;;;;;7.07;4.03;;;;;;;20.69;45.88;97782.09;5053748;28;20186;-72
2023/06/14 08:27:42;;;;;;;4.80;4.07;;;;;;;21.04;46.51;97784.34;5053542;28;20209;-72
2023/06/14 08:30:10;;;;;;;5.03;4.00;;;;;;;20.85;46.01;97792.41;5053517;28;20224;-72
2023/06/14 08:32:36;;;;;;;8.57;4.10;;;;;;;21.09;45.41;97790.50;5053514;28;20683;-73
2023/06/14 08:35:02;;;;;;;5.70;4.13;;;;;;;21.04;45.77;97797.84;5053823;28;20208;-75
2023/06/14 08:37:29;;;;;;;4.30;3.70;;;;;;;21.06;44.85;97793.75;5053504;28;20225;-72
2023/06/14 08:39:56;;;;;;;7.67;4.23;;;;;;;20.81;44.96;97793.28;5053457;28;20201;-72
2023/06/14 08:42:24;;;;;;;6.30;3.90;;;;;;;21.18;44.62;97790.63;5053390;28;20205;-72
2023/06/14 08:44:51;;;;;;;6.17;4.10;;;;;;;20.29;46.24;97798.75;5053327;28;20584;-72
2023/06/14 08:47:18;;;;;;;6.80;3.87;;;;;;;20.65;44.77;97792.66;5053443;28;20584;-72
2023/06/14 08:49:48;;;;;;;6.10;4.10;;;;;;;20.62;44.93;97793.25;5052606;28;20232;-72
2023/06/14 08:52:20;;;;;;;5.57;3.80;;;;;;;21.23;45.37;97793.25;5052954;28;20576;-72
2023/06/14 08:54:48;;;;;;;5.57;3.73;;;;;;;21.53;44.89;97800.91;5053325;28;20193;-72
2023/06/14 08:57:16;;;;;;;5.53;4.10;;;;;;;20.99;44.74;97787.94;5053115;28;20320;-72
2023/06/14 08:59:48;;;;;;;4.43;3.77;;;;;;;21.50;44.33;97796.06;5053187;28;20288;-72
2023/06/14 09:02:17;;;;;;;5.53;4.07;;;;;;;21.74;43.54;97799.50;5053286;28;20203;-72
2023/06/14 09:04:44;;;;;;;4.57;3.90;;;;;;;21.63;43.26;97803.44;5053185;28;20206;-72
2023/06/14 09:07:12;;;;;;;8.30;4.20;;;;;;;21.62;42.78;97797.22;5052615;28;20231;-72
2023/06/14 09:09:42;;;;;;;4.93;3.70;;;;;;;22.06;42.89;97797.56;5053016;28;20282;-72
2023/06/14 09:12:12;;;;;;;5.47;3.33;;;;;;;22.13;42.67;97792.59;5053164;28;20205;-72
2023/06/14 09:14:40;;;;;;;5.35;3.95;;;;;;;22.36;43.13;97796.19;5052673;28;20201;-72
2023/06/14 09:17:07;;;;;;;7.00;3.70;;;;;;;22.39;41.63;97798.31;5052428;28;20221;-72
2023/06/14 09:19:35;;;;;;;6.78;4.00;;;;;;;22.45;42.03;97789.81;5052644;28;20204;-72
2023/06/14 09:22:01;;;;;;;7.90;4.15;;;;;;;22.46;41.26;97794.13;5052794;28;20259;-72
2023/06/14 09:24:28;;;;;;;6.90;3.80;;;;;;;22.59;41.98;97801.47;5052300;28;20224;-72
2023/06/14 09:26:54;;;;;;;8.48;4.10;;;;;;;22.52;42.71;97792.91;5052357;28;20241;-72
2023/06/14 09:29:21;;;;;;;4.25;3.65;;;;;;;22.85;41.65;97790.88;5052825;28;20201;-72
2023/06/14 09:31:48;;;;;;;6.40;4.00;;;;;;;22.84;41.05;97798.22;5052991;28;20201;-72
2023/06/14 09:34:15;;;;;;;8.25;3.90;;;;;;;22.94;39.72;97791.78;5052970;28;20231;-72
2023/06/14 09:36:42;;;;;;;4.28;3.60;;;;;;;22.50;39.59;97799.75;5052475;28;20715;-72
2023/06/14 09:39:09;;;;;;;7.00;3.95;;;;;;;22.08;41.53;97802.69;5052918;28;20209;-73
2023/06/14 09:41:36;;;;;;;4.65;3.90;;;;;;;22.90;41.19;97798.91;5052371;28;20209;-72
2023/06/14 09:44:05;;;;;;;4.22;3.83;;;;;;;22.78;40.88;97799.44;5052370;28;20573;-72
2023/06/14 09:46:31;;;;;;;4.25;3.90;;;;;;;22.88;41.60;97801.91;5052619;28;20225;-72
2023/06/14 09:48:58;;;;;;;5.88;3.58;;;;;;;23.11;40.66;97806.28;5055127;28;20216;-72
2023/06/14 09:51:26;;;;;;;6.43;4.00;;;;;;;23.00;38.90;97799.50;5065222;28;20279;-72
2023/06/14 09:53:53;;;;;;;5.32;3.45;;;;;;;22.69;40.34;97806.66;5058415;28;20235;-72
2023/06/14 09:56:30;;;;;;;7.75;4.35;;;;;;;21.60;41.18;97801.31;5054973;28;20232;-72
2023/06/14 09:58:58;;;;;;;4.05;3.75;;;;;;;21.94;41.00;97805.38;5056606;28;20193;-72
2023/06/14 10:01:31;;;;;;;6.85;3.85;;;;;;;21.66;42.14;97797.44;5056332;28;20208;-72
2023/06/14 10:04:08;;;;;;;5.90;4.03;;;;;;;21.98;41.08;97797.47;5056516;28;20194;-72
2023/06/14 10:06:39;;;;;;;5.50;4.30;;;;;;;22.02;41.32;97801.97;5056699;28;20267;-72
2023/06/14 10:09:09;;;;;;;7.53;4.00;;;;;;;21.80;41.00;97801.81;5056452;28;20197;-72
2023/06/14 10:11:36;;;;;;;6.30;3.90;;;;;;;22.16;38.94;97793.88;5056272;28;20233;-72
2023/06/14 10:14:06;;;;;;;3.67;3.38;;;;;;;22.71;36.95;97788.19;5056423;28;20296;-72
2023/06/14 10:16:39;;;;;;;5.93;3.78;;;;;;;23.45;37.21;97803.94;5056130;28;20225;-72
2023/06/14 10:19:19;;;;;;;6.22;3.70;;;;;;;23.45;37.45;97793.06;5056287;28;20193;-72
2023/06/14 10:21:48;;;;;;;6.70;3.95;;;;;;;23.25;38.72;97796.25;5055844;28;20288;-72
2023/06/14 10:24:18;;;;;;;5.57;3.72;;;;;;;22.30;36.92;97800.13;5055199;28;20592;-72
2023/06/14 10:26:59;;;;;;;7.80;3.55;;;;;;;22.69;40.05;97792.31;5055222;28;20720;-72
2023/06/14 10:29:26;;;;;;;4.55;3.85;;;;;;;22.90;36.86;97785.34;5055717;28;20193;-72
2023/06/14 10:31:58;;;;;;;5.30;3.75;;;;;;;22.45;36.13;97788.97;5055906;28;20241;-72
2023/06/14 10:34:28;;;;;;;4.85;3.50;;;;;;;23.21;36.03;97791.75;5055964;28;20296;-73
2023/06/14 10:37:06;;;;;;;3.92;3.60;;;;;;;23.39;35.55;97782.66;5055735;28;20233;-72
2023/06/14 10:39:36;;;;;;;6.15;3.13;;;;;;;23.94;36.38;97784.81;5055597;28;20216;-72
2023/06/14 10:42:05;;;;;;;6.70;3.95;;;;;;;23.96;35.68;97782.59;5055546;28;20213;-73
2023/06/14 10:44:31;;;;;;;4.43;3.63;;;;;;;24.13;33.49;97784.59;5055251;28;20571;-73
2023/06/14 10:47:01;;;;;;;3.70;3.40;;;;;;;23.97;34.10;97788.81;5055702;28;20232;-73
2023/06/14 10:49:45;;;;;;;4.60;3.30;;;;;;;24.46;34.21;97791.31;5055509;28;20212;-72
2023/06/14 10:52:18;;;;;;;5.32;3.50;;;;;;;24.66;34.78;97775.25;5055094;28;20652;-72
2023/06/14 10:55:05;;;;;;;7.75;3.58;;;;;;;24.91;33.90;97784.56;5055700;28;20194;-72
2023/06/14 10:57:32;;;;;;;6.32;3.28;;;;;;;24.23;31.40;97789.75;5055337;28;20229;-72
2023/06/14 11:00:00;;;;;;;3.50;3.15;;;;;;;24.48;33.97;97781.72;5056096;28;20205;-72
2023/06/14 11:02:47;;;;;;;5.93;3.42;;;;;;;24.49;32.97;97796.09;5055245;28;20656;-72
2023/06/14 11:05:16;;;;;;;5.45;3.30;;;;;;;24.61;32.59;97782.75;5055326;28;20233;-72
2023/06/14 11:08:07;;;;;;;5.40;3.60;;;;;;;23.66;32.50;97786.03;5054995;28;20297;-72
2023/06/14 11:10:42;;;;;;;5.72;3.10;;;;;;;24.21;32.03;97791.97;5054988;28;20275;-72
2023/06/14 11:13:09;;;;;;;3.47;2.72;;;;;;;23.70;30.72;97784.31;5055091;28;20303;-72
2023/06/14 11:15:44;;;;;;;4.57;3.50;;;;;;;23.67;31.62;97776.78;5054826;28;20225;-72
2023/06/14 11:18:10;;;;;;;3.28;2.97;;;;;;;23.99;30.99;97781.16;5054996;28;20189;-72
2023/06/14 11:20:37;;;;;;;4.25;3.60;;;;;;;24.18;31.73;97779.81;5054778;28;20669;-72
2023/06/14 11:23:05;;;;;;;6.60;3.38;;;;;;;24.62;31.06;97773.47;5054529;28;20213;-72
2023/06/14 11:25:31;;;;;;;3.67;3.38;;;;;;;24.57;30.77;97773.59;5054777;28;20642;-72
2023/06/14 11:27:59;;;;;;;3.97;3.20;;;;;;;24.51;32.30;97780.28;5054340;28;20699;-72
2023/06/14 11:30:26;;;;;;;4.75;3.35;;;;;;;24.64;31.50;97777.47;5054370;28;20758;-72
2023/06/14 11:32:54;;;;;;;4.03;3.03;;;;;;;24.48;31.30;97783.63;5054439;28;20544;-72
2023/06/14 11:35:23;;;;;;;6.57;3.72;;;;;;;24.35;32.31;97765.50;5054802;28;20213;-72
2023/06/14 11:37:52;;;;;;;4.78;3.72;;;;;;;24.50;31.11;97787.63;5054648;28;20205;-72